METAR Data
IDs: Format: Raw Decoded Include TAF

Data at: 0712 UTC 07 Dec 2022

KSPB 070704Z AUTO 00000KT 4SM BR BKN007 OVC039 03/02 A3021 RMK AO2 RAE0657 P0000 T00330017
KSPB 070653Z AUTO 00000KT 5SM -RA BR SCT007 BKN040 OVC050 03/02 A3021 RMK AO2 RAB43 SLP229 P0000 T00330017
KSPB 070633Z AUTO 00000KT 6SM BR FEW006 SCT040 OVC050 03/02 A3021 RMK AO2 T00330017
KSPB 070553Z AUTO 00000KT 6SM BR SCT027 SCT039 OVC050 03/02 A3020 RMK AO2 SLP227 60000 T00330017 10044 20028 51003
KSPB 070530Z AUTO 00000KT 5SM BR FEW008 BKN028 OVC050 03/02 A3020 RMK AO2 T00330022
KSPB 070453Z AUTO 00000KT 5SM BR FEW009 SCT036 OVC050 04/02 A3020 RMK AO2 SLP227 T00390022
KSPB 070421Z AUTO 00000KT 5SM BR OVC009 04/03 A3020 RMK AO2 T00390028
KSPB 070353Z AUTO 00000KT 6SM BR BKN010 OVC047 04/03 A3020 RMK AO2 RAB12E44 SLP225 P0000 T00440028
KSPB 070349Z AUTO 00000KT 6SM BR BKN010 OVC048 04/03 A3020 RMK AO2 RAB12E44 P0000
KSPB 070253Z AUTO 00000KT 6SM BR SCT006 BKN035 OVC049 04/03 A3019 RMK AO2 SLP223 60000 T00440028 51004
KSPB 070223Z AUTO 00000KT 6SM BR OVC006 04/03 A3019 RMK AO2 CIG 004V010 T00440028
KSPB 070153Z AUTO 00000KT 7SM OVC004 04/03 A3019 RMK AO2 RAB29E42 SLP222 P0000 T00440028
KSPB 070053Z AUTO 00000KT 7SM OVC004 04/03 A3018 RMK AO2 SLP219 T00440028
KSPB 070018Z AUTO 00000KT 7SM BKN004 OVC050 04/03 A3017 RMK AO2 T00440028
KSPB 070006Z AUTO 00000KT 7SM SCT005 SCT046 OVC055 04/03 A3017 RMK AO2 T00440028
KSPB 062353Z AUTO 00000KT 7SM BKN005 OVC050 04/03 A3018 RMK AO2 RAE05B38E47 SLP218 P0000 60000 T00440028 10050 20033 55000
KSPB 062253Z AUTO 00000KT 6SM -RA BR OVC006 04/03 A3017 RMK AO2 RAB2157E18B46 SLP218 P0000 T00440028
KSPB 062153Z AUTO 00000KT 6SM BR OVC007 04/03 A3017 RMK AO2 SLP217 T00440028
KSPB 062053Z AUTO 00000KT 7SM OVC006 04/02 A3017 RMK AO2 RAB41E53 SLP218 P0000 60000 T00440022 58001
KSPB 061953Z AUTO 00000KT 7SM OVC006 04/02 A3018 RMK AO2 RAB00E15 SLP220 P0000 T00440022
KSPB 061853Z AUTO 00000KT 6SM BR OVC005 04/02 A3019 RMK AO2 RAE1755 SLP222 P0000 T00390017
KSPB 061753Z AUTO 00000KT 3SM -RA BR OVC006 03/01 A3018 RMK AO2 RAE12B42 SLP219 P0000 60000 T00330011 10033 20022 53012
KSPB 061653Z AUTO 00000KT 4SM -RA BR OVC006 03/01 A3016 RMK AO2 RAB43 SLP212 P0000 T00280011
KSPB 061553Z AUTO 00000KT 6SM BR OVC006 03/01 A3015 RMK AO2 RAB24E39 SLP209 P0000 T00280006
KSPB 061453Z AUTO 00000KT 8SM OVC007 02/01 A3014 RMK AO2 RAB1354E43 SLP207 P0000 60000 T00220006 53007
KSPB 061353Z AUTO 00000KT 6SM BR OVC008 03/01 A3013 RMK AO2 RAE15 SLP202 P0000 T00280006
KSPB 061253Z AUTO 00000KT 7SM -RA BKN008 OVC015 02/01 A3012 RMK AO2 RAB32 SLP200 P0000 T00220006
KSPB 061153Z AUTO 00000KT 8SM OVC009 02/01 A3012 RMK AO2 RAB03E31UPB04E06 SLP200 P0000 60000 T00220006 10028 20017 51003
KSPB 061150Z AUTO 00000KT 8SM OVC009 02/01 A3012 RMK AO2 RAB03E31UPB04E06 P0000
KSPB 061129Z AUTO 00000KT 8SM -RA BKN011 OVC040 02/01 A3012 RMK AO2 RAB03UPB04E06 P0000 T00220006
KSPB 061122Z AUTO 00000KT 8SM -RA SCT011 BKN022 OVC040 02/01 A3012 RMK AO2 RAB03UPB04E06 P0000 T00220006
KSPB 061108Z AUTO 00000KT 8SM -RA BKN011 OVC040 02/01 A3012 RMK AO2 RAB03UPB04E06 P0000 T00220006
KSPB 061053Z AUTO 00000KT 8SM SCT011 BKN033 OVC060 02/01 A3013 RMK AO2 RAB13E38 SLP201 P0000 T00220006
KSPB 061041Z AUTO 00000KT 7SM BKN012 BKN019 OVC047 02/00 A3013 RMK AO2 RAB13E38 P0000 T00220000
KSPB 061031Z AUTO 00000KT 8SM -RA SCT012 BKN021 OVC060 02/01 A3013 RMK AO2 RAB13 P0000 T00220006
KSPB 060953Z AUTO 00000KT 10SM OVC012 02/00 A3011 RMK AO2 SLP196 T00220000
KSPB 060919Z AUTO 00000KT 10SM BKN012 BKN018 OVC046 02/00 A3010 RMK AO2 T00220000
KSPB 060853Z AUTO 00000KT 10SM FEW011 OVC049 02/M01 A3010 RMK AO2 SLP194 60000 T00221006 51005
KSPB 060753Z AUTO 00000KT 10SM OVC047 02/00 A3010 RMK AO2 RAB04E13 SLP192 P0000 T00220000 400670006
KSPB 060709Z AUTO 00000KT 10SM -RA SCT016 OVC043 03/00 A3010 RMK AO2 RAB04 P0000 T00280000
KSPB 060653Z AUTO 00000KT 10SM BKN016 OVC044 03/00 A3010 RMK AO2 SLP191 T00280000
KSPB 060553Z AUTO 00000KT 9SM BKN015 OVC028 03/01 A3009 RMK AO2 RAE33B40E49 SLP189 P0000 60000 T00280006 10039 20022 51014
KSPB 060542Z AUTO 23003KT 7SM -RA BKN014 OVC027 03/01 A3009 RMK AO2 RAE33B40 P0000 T00280006
KSPB 060533Z AUTO 00000KT 5SM BR SCT014 OVC026 03/01 A3008 RMK AO2 RAE33 P0000 T00280011
KSPB 060453Z AUTO 00000KT 5SM -RA BR OVC014 03/01 A3008 RMK AO2 RAB53 SLP185 P0000 T00280011
KSPB 060353Z AUTO 00000KT 6SM BR FEW004 OVC012 03/01 A3006 RMK AO2 SLP179 T00280011
KSPB 060309Z AUTO 00000KT 6SM BR FEW004 OVC013 03/01 A3005 RMK AO2 T00280011
KSPB 060253Z AUTO 00000KT 6SM BR FEW006 OVC015 03/01 A3005 RMK AO2 SLP175 T00280006 51009
KSPB 060244Z AUTO 00000KT 6SM BR FEW006 OVC015 02/01 A3005 RMK AO2 T00220006
KSPB 060226Z AUTO 13003KT 5SM BR BKN005 OVC015 03/01 A3004 RMK AO2 CIG 003V007 T00280011
KSPB 060153Z AUTO 15003KT 4SM BR OVC002 03/01 A3004 RMK AO2 SLP172 T00280011
KSPB 060116Z AUTO 00000KT 5SM BR BKN003 OVC008 03/02 A3003 RMK AO2 T00330017
KSPB 060053Z AUTO 09003KT 6SM BR SCT004 OVC009 03/02 A3003 RMK AO2 SLP168 T00330017
KSPB 060043Z AUTO 00000KT 6SM BR FEW004 OVC009 03/02 A3003 RMK AO2 T00330017
KSPB 052353Z AUTO 12003KT 8SM OVC011 04/02 A3002 RMK AO2 SLP165 T00390017 10067 20028 53004
KSPB 052333Z AUTO 14004KT 8SM BKN013 04/02 A3001 RMK AO2 T00390017
KSPB 052253Z AUTO 12004KT 10SM CLR 06/03 A3000 RMK AO2 SLP160 T00560028
KSPB 052231Z AUTO 12004KT 10SM SCT013 06/02 A3000 RMK AO2 T00610022
KSPB 052153Z AUTO 00000KT 10SM BKN011 07/03 A3000 RMK AO2 SLP158 T00670028
KSPB 052146Z AUTO 00000KT 10SM SCT011 06/03 A3000 RMK AO2 T00610028
KSPB 052119Z AUTO 00000KT 10SM BKN011 06/03 A3000 RMK AO2 T00610028
KSPB 052053Z AUTO 00000KT 10SM SCT010 06/03 A3001 RMK AO2 SLP161 T00560028 58010
KSPB 052024Z AUTO 00000KT 10SM OVC010 05/02 A3001 RMK AO2 T00500022
KSPB 051953Z AUTO 00000KT 10SM BKN008 OVC035 05/02 A3002 RMK AO2 SLP165 T00500022
KSPB 051944Z AUTO 00000KT 10SM BKN008 OVC035 06/03 A3002 RMK AO2 T00560028
KSPB 051933Z AUTO 00000KT 10SM SCT007 OVC036 06/02 A3002 RMK AO2 T00560022
KSPB 051924Z AUTO 00000KT 10SM BKN006 OVC036 04/02 A3003 RMK AO2 T00440022